createdAt,value
2022-08-21T00:02:04.929Z,13.49
2022-08-21T00:07:01.339Z,13.46
2022-08-21T00:11:57.752Z,13.42
2022-08-21T00:16:57.266Z,13.41
2022-08-21T00:21:57.933Z,13.38
2022-08-21T00:26:54.626Z,13.26
2022-08-21T00:31:51.018Z,13.05
2022-08-21T00:36:47.409Z,13.06
2022-08-21T00:41:44.029Z,13.10
2022-08-21T00:46:42.337Z,13.25
2022-08-21T00:51:44.447Z,13.15
2022-08-21T00:56:41.977Z,13.28
2022-08-21T01:01:40.031Z,13.31
2022-08-21T01:06:36.448Z,13.40
2022-08-21T01:11:32.920Z,13.26
2022-08-21T01:16:29.665Z,13.30
2022-08-21T01:21:28.469Z,13.38
2022-08-21T01:26:33.932Z,13.35
2022-08-21T01:31:32.730Z,13.39
2022-08-21T01:36:29.141Z,13.32
2022-08-21T01:41:25.517Z,13.27
2022-08-21T01:46:21.938Z,13.19
2022-08-21T01:51:18.481Z,12.99
2022-08-21T01:56:16.725Z,12.94
2022-08-21T02:01:13.475Z,13.06
2022-08-21T02:06:15.816Z,12.95
2022-08-21T02:11:12.421Z,13.02
2022-08-21T02:16:09.167Z,13.19
2022-08-21T02:21:06.717Z,13.49
2022-08-21T02:26:07.501Z,13.38
2022-08-21T02:31:04.826Z,13.37
2022-08-21T02:36:02.916Z,13.50
2022-08-21T02:40:59.353Z,13.44
2022-08-21T02:45:57.906Z,13.43
2022-08-21T02:51:04.701Z,13.40
2022-08-21T02:56:04.951Z,13.38
2022-08-21T03:01:01.590Z,13.42
2022-08-21T03:05:58.004Z,13.47
2022-08-21T03:10:55.098Z,13.52
2022-08-21T03:15:51.674Z,13.51
2022-08-21T03:20:48.549Z,13.44
2022-08-21T03:25:46.714Z,13.59
2022-08-21T03:30:45.062Z,13.65
2022-08-21T03:35:43.408Z,13.77
2022-08-21T03:40:39.816Z,13.79
2022-08-21T03:45:37.216Z,13.84
2022-08-21T03:50:40.789Z,13.85
2022-08-21T03:55:37.752Z,13.85
2022-08-21T04:00:35.910Z,13.86
2022-08-21T04:05:32.347Z,13.89
2022-08-21T04:10:31.530Z,13.86
2022-08-21T04:15:27.964Z,13.84
2022-08-21T04:20:26.002Z,13.80
2022-08-21T04:25:23.229Z,13.68
2022-08-21T04:30:20.641Z,13.48
2022-08-21T04:35:20.048Z,13.49
2022-08-21T04:40:18.626Z,13.44
2022-08-21T04:45:45.693Z,13.56
2022-08-21T04:51:07.069Z,13.49
2022-08-21T04:56:09.437Z,13.52
2022-08-21T05:01:09.907Z,13.36
2022-08-21T05:06:10.039Z,13.33
2022-08-21T05:11:07.631Z,13.35
2022-08-21T05:16:04.471Z,13.48
2022-08-21T05:21:00.849Z,13.51
2022-08-21T05:25:57.472Z,13.58
2022-08-21T05:30:54.163Z,13.69
2022-08-21T05:35:53.434Z,13.87
2022-08-21T05:40:49.823Z,14.33
2022-08-21T05:45:46.674Z,14.48
2022-08-21T05:50:44.018Z,14.66
2022-08-21T05:55:45.786Z,14.99
2022-08-21T06:00:44.317Z,15.16
2022-08-21T06:05:40.695Z,15.57
2022-08-21T06:10:37.153Z,15.80
2022-08-21T06:15:33.966Z,16.00
2022-08-21T06:20:30.628Z,16.22
2022-08-21T06:25:27.209Z,16.41
2022-08-21T06:30:23.670Z,16.72
2022-08-21T06:35:20.537Z,17.00
2022-08-21T06:40:17.035Z,17.39
2022-08-21T06:45:15.140Z,17.58
2022-08-21T06:50:11.702Z,17.76
2022-08-21T06:55:11.163Z,18.09
2022-08-21T07:00:10.387Z,18.15
2022-08-21T07:05:07.878Z,18.38
2022-08-21T07:10:22.355Z,18.76
2022-08-21T07:15:19.336Z,18.72
2022-08-21T07:20:15.875Z,19.03
2022-08-21T07:25:12.799Z,19.31
2022-08-21T07:30:09.646Z,19.47
2022-08-21T07:35:06.337Z,19.65
2022-08-21T07:40:03.429Z,20.01
2022-08-21T07:44:59.869Z,20.30
2022-08-21T07:49:56.301Z,20.49
2022-08-21T07:54:53.455Z,20.77
2022-08-21T07:59:49.986Z,20.53
2022-08-21T08:04:50.532Z,20.59
2022-08-21T08:09:47.458Z,20.52
2022-08-21T08:14:43.982Z,20.98
2022-08-21T08:19:40.681Z,21.41
2022-08-21T08:24:39.605Z,21.54
2022-08-21T08:29:36.255Z,21.40
2022-08-21T08:34:32.635Z,21.45
2022-08-21T08:39:30.648Z,21.33
2022-08-21T08:44:29.680Z,21.51
2022-08-21T08:49:37.685Z,21.35
2022-08-21T08:54:46.210Z,22.22
2022-08-21T08:59:47.813Z,22.11
2022-08-21T09:04:48.241Z,22.66
2022-08-21T09:10:02.983Z,22.20
2022-08-21T09:15:42.257Z,21.59
2022-08-21T09:20:48.268Z,21.44
2022-08-21T09:26:22.030Z,21.63
2022-08-21T09:31:27.526Z,21.49
2022-08-21T09:36:36.548Z,22.04
2022-08-21T09:41:36.434Z,21.79
2022-08-21T09:46:33.851Z,22.73
2022-08-21T09:51:32.015Z,21.88
2022-08-21T09:56:51.840Z,21.65
2022-08-21T10:01:51.604Z,22.47
2022-08-21T10:06:50.041Z,23.26
2022-08-21T10:11:58.113Z,23.19
2022-08-21T10:17:08.502Z,22.38
2022-08-21T10:22:23.685Z,23.45
2022-08-21T10:27:42.293Z,23.43
2022-08-21T10:32:53.695Z,22.29
2022-08-21T10:38:48.767Z,22.57
2022-08-21T10:44:14.524Z,22.19
2022-08-21T10:49:28.497Z,22.75
2022-08-21T10:54:39.056Z,23.49
2022-08-21T10:59:44.744Z,23.28
2022-08-21T11:04:51.059Z,23.50
2022-08-21T11:09:50.148Z,23.57
2022-08-21T11:14:54.880Z,22.92
2022-08-21T11:20:05.305Z,22.75
2022-08-21T11:25:04.196Z,23.14
2022-08-21T11:30:02.608Z,23.40
2022-08-21T11:35:20.394Z,22.97
2022-08-21T11:40:38.251Z,23.03
2022-08-21T11:45:56.052Z,23.12
2022-08-21T11:50:53.417Z,24.27
2022-08-21T11:56:09.158Z,24.64
2022-08-21T12:01:33.066Z,23.42
2022-08-21T12:06:37.990Z,23.74
2022-08-21T12:11:48.711Z,24.00
2022-08-21T12:16:50.057Z,24.30
2022-08-21T12:22:10.881Z,24.31
2022-08-21T12:27:31.684Z,24.82
2022-08-21T12:32:31.529Z,24.46
2022-08-21T12:37:27.802Z,23.99
2022-08-21T12:42:32.355Z,24.26
2022-08-21T12:47:46.087Z,24.53
2022-08-21T12:52:55.372Z,24.30
2022-08-21T12:57:51.713Z,24.32
2022-08-21T13:02:50.249Z,24.34
2022-08-21T13:07:49.195Z,24.68
2022-08-21T13:12:46.259Z,24.35
2022-08-21T13:17:51.932Z,23.72
2022-08-21T13:22:48.648Z,24.13
2022-08-21T13:28:17.019Z,24.69
2022-08-21T13:33:16.185Z,24.55
2022-08-21T13:38:12.749Z,24.74
2022-08-21T13:43:21.242Z,24.82
2022-08-21T13:48:18.143Z,24.85
2022-08-21T13:53:24.878Z,25.16
2022-08-21T13:58:34.121Z,24.73
2022-08-21T14:03:38.411Z,24.76
2022-08-21T14:08:41.971Z,24.96
2022-08-21T14:14:00.628Z,24.72
2022-08-21T14:19:03.556Z,24.16
2022-08-21T14:24:24.001Z,23.98
2022-08-21T14:29:23.436Z,24.26
2022-08-21T14:34:20.178Z,24.51
2022-08-21T14:39:16.866Z,24.70
2022-08-21T14:44:14.354Z,24.57
2022-08-21T14:49:10.859Z,24.47
2022-08-21T14:54:07.836Z,24.48
2022-08-21T14:59:07.001Z,24.97
2022-08-21T15:04:03.604Z,24.80
2022-08-21T15:09:00.029Z,25.06
2022-08-21T15:14:01.310Z,24.59
2022-08-21T15:19:00.029Z,24.38
2022-08-21T15:23:56.668Z,23.87
2022-08-21T15:28:53.178Z,23.98
2022-08-21T15:33:49.480Z,24.46
2022-08-21T15:38:46.196Z,25.12
2022-08-21T15:43:48.721Z,26.00
2022-08-21T15:48:46.984Z,24.89
2022-08-21T15:53:44.148Z,24.75
2022-08-21T15:58:40.499Z,24.73
2022-08-21T16:03:36.890Z,24.70
2022-08-21T16:08:33.270Z,24.36
2022-08-21T16:13:37.500Z,24.00
2022-08-21T16:18:33.845Z,24.45
2022-08-21T16:23:30.318Z,23.87
2022-08-21T16:28:26.775Z,23.83
2022-08-21T16:33:39.123Z,23.85
2022-08-21T16:38:38.288Z,24.23
2022-08-21T16:43:35.612Z,23.92
2022-08-21T16:48:31.890Z,23.73
2022-08-21T16:53:28.258Z,23.54
2022-08-21T16:58:33.990Z,23.62
2022-08-21T17:03:34.339Z,23.50
2022-08-21T17:08:30.666Z,23.35
2022-08-21T17:13:27.199Z,23.19
2022-08-21T17:18:25.336Z,23.23
2022-08-21T17:23:21.746Z,23.25
2022-08-21T17:28:26.502Z,23.24
2022-08-21T17:33:25.339Z,24.10
2022-08-21T17:38:21.951Z,23.94
2022-08-21T17:43:18.518Z,23.64
2022-08-21T17:48:14.816Z,23.41
2022-08-21T17:53:11.312Z,23.19
2022-08-21T17:58:11.890Z,22.95
2022-08-21T18:03:16.233Z,22.46
2022-08-21T18:08:13.437Z,21.85
2022-08-21T18:13:12.049Z,21.44
2022-08-21T18:18:08.395Z,21.26
2022-08-21T18:23:04.706Z,20.86
2022-08-21T18:28:07.163Z,20.33
2022-08-21T18:33:03.835Z,19.94
2022-08-21T18:38:00.146Z,19.75
2022-08-21T18:42:56.617Z,19.41
2022-08-21T18:47:55.766Z,19.20
2022-08-21T18:53:11.126Z,18.98
2022-08-21T18:58:09.008Z,18.87
2022-08-21T19:03:06.008Z,18.74
2022-08-21T19:08:04.340Z,18.61
2022-08-21T19:13:01.386Z,18.44
2022-08-21T19:17:59.037Z,18.29
2022-08-21T19:22:56.330Z,18.19
2022-08-21T19:27:53.239Z,18.04
2022-08-21T19:32:52.436Z,17.77
2022-08-21T19:37:48.858Z,17.52
2022-08-21T19:42:45.335Z,17.28
2022-08-21T19:47:47.135Z,17.26
2022-08-21T19:52:46.694Z,17.27
2022-08-21T19:57:47.844Z,17.18
2022-08-21T20:02:47.839Z,17.01
2022-08-21T20:13:01.948Z,16.66
2022-08-21T20:17:59.487Z,16.43
2022-08-21T20:22:55.841Z,16.42
2022-08-21T20:27:52.811Z,16.48
2022-08-21T20:32:49.394Z,16.55
2022-08-21T20:37:45.938Z,16.43
2022-08-21T20:42:56.440Z,16.25
2022-08-21T20:48:01.236Z,16.17
2022-08-21T20:53:05.533Z,16.15
2022-08-21T20:58:08.082Z,16.13
2022-08-21T21:03:13.873Z,16.13
2022-08-21T21:08:23.852Z,16.12
2022-08-21T21:13:47.893Z,15.99
2022-08-21T21:18:49.801Z,16.00
2022-08-21T21:23:56.190Z,15.98
2022-08-21T21:29:00.582Z,15.85
2022-08-21T21:33:57.689Z,15.73
2022-08-21T21:39:07.516Z,15.58
2022-08-21T21:44:27.590Z,15.49
2022-08-21T21:49:50.635Z,15.30
2022-08-21T21:55:00.197Z,15.11
2022-08-21T22:00:08.264Z,15.16
2022-08-21T22:05:38.750Z,15.04
2022-08-21T22:11:00.821Z,14.88
2022-08-21T22:16:06.523Z,14.88
2022-08-21T22:21:12.623Z,15.04
2022-08-21T22:26:13.805Z,15.21
2022-08-21T22:31:24.285Z,15.39
2022-08-21T22:36:21.275Z,15.55
2022-08-21T22:41:28.131Z,15.94
2022-08-21T22:46:29.559Z,16.25
2022-08-21T22:51:36.183Z,16.43
2022-08-21T23:02:07.737Z,16.28
2022-08-21T23:07:07.763Z,16.12
2022-08-21T23:12:23.652Z,15.90
2022-08-21T23:17:45.479Z,15.77
2022-08-21T23:23:22.583Z,15.70
2022-08-21T23:33:43.993Z,15.65
2022-08-21T23:39:05.222Z,15.55
2022-08-21T23:44:26.022Z,15.64
2022-08-21T23:49:49.525Z,15.76
2022-08-21T23:55:29.277Z,15.83
